Time;durP1;ratioP1;P1;durP2;ratioP2;P2;SDS_P1;SDS_P2;PMS_P1;PMS_P2;Temp;Humidity;BMP_temperature;BMP_pressure;BME280_temperature;BME280_humidity;BME280_pressure;Samples;Min_cycle;Max_cycle;Signal;HPM_P1;HPM_P2
2022/03/09 00:01:23;;;;;;;10.10;8.67;;;;;;;-1.87;75.17;100118.25;5073451;28;20553;-73
2022/03/09 00:03:53;;;;;;;10.40;8.27;;;;;;;-1.87;74.65;100120.88;5073291;28;20247;-73
2022/03/09 00:06:26;;;;;;;9.50;8.40;;;;;;;-1.88;74.58;100121.03;5066831;28;20258;-72
2022/03/09 00:08:54;;;;;;;9.83;8.37;;;;;;;-1.90;74.92;100121.16;5089606;28;20217;-73
2022/03/09 00:11:23;;;;;;;11.57;7.90;;;;;;;-1.89;74.67;100108.84;5042403;28;20240;-73
2022/03/09 00:13:50;;;;;;;9.23;8.27;;;;;;;-1.90;74.88;100118.53;5082614;28;20599;-72
2022/03/09 00:16:18;;;;;;;9.53;8.13;;;;;;;-1.96;75.95;100118.22;5075809;28;20242;-72
2022/03/09 00:18:48;;;;;;;9.53;8.00;;;;;;;-1.99;75.40;100119.28;5070795;28;20247;-73
2022/03/09 00:21:19;;;;;;;12.60;8.80;;;;;;;-1.99;75.53;100128.97;5074801;28;20352;-73
2022/03/09 00:23:48;;;;;;;8.53;7.50;;;;;;;-1.94;75.57;100125.00;5081533;28;20224;-73
2022/03/09 00:26:15;;;;;;;8.00;7.20;;;;;;;-2.02;75.72;100126.59;5081141;28;20288;-73
2022/03/09 00:28:42;;;;;;;9.90;8.30;;;;;;;-2.09;76.14;100131.50;5059006;28;20216;-72
2022/03/09 00:31:09;;;;;;;10.83;7.67;;;;;;;-2.12;76.34;100133.56;5083443;28;20233;-72
2022/03/09 00:33:39;;;;;;;8.93;7.20;;;;;;;-2.18;76.85;100127.03;5090954;28;20213;-74
2022/03/09 00:36:07;;;;;;;10.20;7.73;;;;;;;-2.20;76.99;100133.38;5090183;28;20232;-73
2022/03/09 00:38:37;;;;;;;9.90;7.93;;;;;;;-2.28;77.74;100132.19;5081951;28;20681;-72
2022/03/09 00:41:05;;;;;;;9.47;8.03;;;;;;;-2.31;77.85;100129.00;5081631;28;20229;-73
2022/03/09 00:43:33;;;;;;;8.63;7.67;;;;;;;-2.39;78.25;100126.19;5063660;23;20221;-74
2022/03/09 00:46:08;;;;;;;9.13;7.83;;;;;;;-2.46;79.10;100127.63;5076937;28;20315;-72
2022/03/09 00:48:38;;;;;;;10.40;8.20;;;;;;;-2.48;79.79;100127.75;5075352;28;20289;-72
2022/03/09 00:51:07;;;;;;;9.13;7.50;;;;;;;-2.55;79.97;100134.44;5073377;28;20259;-74
2022/03/09 00:53:40;;;;;;;8.73;7.37;;;;;;;-2.59;80.23;100134.81;5033012;28;20516;-72
2022/03/09 00:56:14;;;;;;;10.60;8.07;;;;;;;-2.62;80.98;100128.03;5061290;28;20237;-74
2022/03/09 00:58:42;;;;;;;10.93;8.07;;;;;;;-2.64;81.11;100129.09;5063847;28;20252;-72
2022/03/09 01:01:12;;;;;;;9.67;7.80;;;;;;;-2.63;81.67;100141.28;5063244;28;20315;-72
2022/03/09 01:03:41;;;;;;;8.90;8.00;;;;;;;-2.74;82.53;100137.72;5070063;28;20225;-73
2022/03/09 01:06:11;;;;;;;9.30;7.50;;;;;;;-2.77;83.72;100142.38;5077628;28;20237;-73
2022/03/09 01:08:40;;;;;;;8.80;7.63;;;;;;;-2.85;84.79;100139.53;5073566;28;20224;-73
2022/03/09 01:11:09;;;;;;;9.97;8.10;;;;;;;-2.90;85.33;100139.91;5065012;28;20233;-72
2022/03/09 01:13:38;;;;;;;10.43;7.80;;;;;;;-2.98;85.85;100141.44;5050023;28;20641;-73
2022/03/09 01:16:06;;;;;;;9.53;7.90;;;;;;;-3.04;86.04;100140.16;5071249;28;20756;-73
2022/03/09 01:18:33;;;;;;;9.73;7.83;;;;;;;-3.06;86.62;100147.31;5075550;28;20308;-72
2022/03/09 01:21:02;;;;;;;9.33;7.63;;;;;;;-3.11;86.98;100146.81;5066132;28;20221;-73
2022/03/09 01:23:34;;;;;;;9.77;7.70;;;;;;;-3.03;87.62;100144.44;5080067;28;20525;-73
2022/03/09 01:26:00;;;;;;;10.63;8.53;;;;;;;-3.14;89.46;100147.06;5054023;28;20774;-74
2022/03/09 01:28:32;;;;;;;10.00;8.23;;;;;;;-3.19;91.30;100149.22;5073191;28;20225;-72
2022/03/09 01:31:01;;;;;;;9.93;7.63;;;;;;;-3.26;92.67;100153.25;5047163;28;20247;-73
2022/03/09 01:33:33;;;;;;;9.93;8.23;;;;;;;-3.29;93.79;100150.88;5056273;28;20232;-73
2022/03/09 01:36:04;;;;;;;9.50;8.30;;;;;;;-3.30;95.08;100154.44;5076178;28;20216;-73
2022/03/09 01:38:32;;;;;;;10.40;7.97;;;;;;;-3.32;96.13;100148.50;5079435;28;20281;-73
2022/03/09 01:40:59;;;;;;;10.23;8.20;;;;;;;-3.38;97.44;100144.56;5054566;28;20229;-72
2022/03/09 01:43:26;;;;;;;10.70;8.47;;;;;;;-3.37;96.94;100138.38;5069418;28;20256;-73
2022/03/09 01:45:53;;;;;;;10.13;8.00;;;;;;;-3.38;97.00;100131.47;5062464;28;20230;-73
2022/03/09 01:48:22;;;;;;;12.10;7.83;;;;;;;-3.41;97.58;100128.25;5058383;28;20229;-73
2022/03/09 01:50:51;;;;;;;8.83;7.90;;;;;;;-3.42;97.79;100127.44;5069170;28;20236;-72
2022/03/09 01:53:21;;;;;;;9.47;7.53;;;;;;;-3.47;98.84;100128.72;5062022;28;20297;-73
2022/03/09 01:55:55;;;;;;;10.33;8.37;;;;;;;-3.43;99.09;100131.00;5067048;28;20283;-73
2022/03/09 01:58:23;;;;;;;11.83;8.17;;;;;;;-3.45;100.00;100135.50;5062028;28;20261;-73
2022/03/09 02:00:50;;;;;;;11.40;8.17;;;;;;;-3.48;100.00;100127.06;5070076;28;20214;-73
2022/03/09 02:03:21;;;;;;;12.77;8.50;;;;;;;-3.44;100.00;100118.00;5067987;28;20233;-73
2022/03/09 02:06:00;;;;;;;10.20;8.63;;;;;;;-3.42;100.00;100116.13;5053383;28;20212;-72
2022/03/09 02:11:21;;;;;;;11.50;8.07;;;;;;;-3.38;100.00;100123.63;5060757;28;20253;-74
2022/03/09 02:13:48;;;;;;;11.20;8.30;;;;;;;-3.41;100.00;100120.41;5075261;28;20227;-73
2022/03/09 02:16:17;;;;;;;10.27;8.37;;;;;;;-3.40;100.00;100122.06;5060208;28;20255;-74
2022/03/09 02:18:44;;;;;;;10.27;8.57;;;;;;;-3.40;100.00;100120.25;5068452;28;20286;-73
2022/03/09 02:21:15;;;;;;;12.47;8.57;;;;;;;-3.42;100.00;100119.56;5069518;28;20232;-73
2022/03/09 02:23:47;;;;;;;11.60;8.20;;;;;;;-3.42;100.00;100124.81;5080822;28;20221;-73
2022/03/09 02:26:16;;;;;;;11.30;8.97;;;;;;;-3.37;100.00;100116.59;5060258;28;20304;-73
2022/03/09 02:28:48;;;;;;;12.97;8.53;;;;;;;-3.36;100.00;100121.69;5049924;28;20225;-73
2022/03/09 02:31:15;;;;;;;11.37;8.80;;;;;;;-3.37;100.00;100127.91;5069913;28;20328;-74
2022/03/09 02:33:46;;;;;;;11.03;8.97;;;;;;;-3.31;100.00;100116.13;5079394;28;20232;-72
2022/03/09 02:36:13;;;;;;;9.87;8.37;;;;;;;-3.12;100.00;100111.91;5073057;28;20534;-75
2022/03/09 02:38:41;;;;;;;11.73;8.90;;;;;;;-2.98;99.42;100113.44;5065706;28;20233;-73
2022/03/09 02:41:13;;;;;;;10.90;8.90;;;;;;;-2.92;98.46;100115.59;5073061;28;20223;-72
2022/03/09 02:43:42;;;;;;;9.63;8.43;;;;;;;-2.95;98.14;100115.00;5078191;28;20221;-73
2022/03/09 02:46:13;;;;;;;10.60;8.90;;;;;;;-2.91;99.08;100112.00;5077713;28;20240;-73
2022/03/09 02:48:41;;;;;;;12.13;8.80;;;;;;;-2.82;97.73;100113.06;5074612;28;20229;-73
2022/03/09 02:51:12;;;;;;;11.60;8.57;;;;;;;-2.89;98.32;100110.09;5076573;28;20244;-72
2022/03/09 02:53:48;;;;;;;11.53;8.87;;;;;;;-2.73;97.90;100112.31;5072588;28;20231;-73
2022/03/09 02:56:26;;;;;;;10.57;8.50;;;;;;;-2.55;95.77;100113.47;5068915;28;21048;-73
2022/03/09 02:58:56;;;;;;;14.10;9.50;;;;;;;-2.59;96.20;100122.53;5064671;28;20257;-73
2022/03/09 03:01:23;;;;;;;12.47;9.03;;;;;;;-2.54;96.18;100116.91;5063344;28;20249;-73
2022/03/09 03:03:51;;;;;;;11.90;8.73;;;;;;;-2.50;95.62;100113.91;5054549;28;20228;-72
2022/03/09 03:06:21;;;;;;;11.67;8.83;;;;;;;-2.49;96.01;100117.38;5065152;28;20225;-73
2022/03/09 03:08:48;;;;;;;12.07;9.33;;;;;;;-2.41;95.69;100110.53;5074381;28;20193;-72
2022/03/09 03:11:15;;;;;;;11.37;8.93;;;;;;;-2.41;95.33;100109.72;5076782;28;20220;-73
2022/03/09 03:13:49;;;;;;;10.30;8.80;;;;;;;-2.29;94.02;100106.91;5066001;28;20316;-73
2022/03/09 03:16:17;;;;;;;12.27;8.73;;;;;;;-2.20;93.51;100126.34;5068103;28;20221;-73
2022/03/09 03:18:47;;;;;;;11.27;8.20;;;;;;;-2.18;92.80;100120.94;5061465;28;20275;-72
2022/03/09 03:21:14;;;;;;;12.77;8.97;;;;;;;-2.20;93.64;100118.47;5075362;28;20240;-73
2022/03/09 03:23:41;;;;;;;11.63;8.57;;;;;;;-2.18;93.69;100118.31;5074952;28;20327;-72
2022/03/09 03:26:14;;;;;;;11.07;8.47;;;;;;;-2.25;93.46;100112.75;5067691;28;20248;-73
2022/03/09 03:28:40;;;;;;;10.40;8.67;;;;;;;-2.29;93.80;100112.16;5069835;28;20229;-73
2022/03/09 03:31:08;;;;;;;10.80;8.77;;;;;;;-2.29;93.35;100117.41;5068190;28;20228;-73
2022/03/09 03:33:34;;;;;;;10.93;8.50;;;;;;;-2.20;93.47;100118.47;5071257;28;20323;-73
2022/03/09 03:36:09;;;;;;;12.87;8.70;;;;;;;-2.23;92.34;100119.53;5064270;28;20271;-73
2022/03/09 03:38:40;;;;;;;10.47;8.70;;;;;;;-2.28;92.91;100120.84;5065648;28;20265;-73
2022/03/09 03:41:07;;;;;;;10.97;8.43;;;;;;;-2.30;92.90;100113.13;5072628;28;20304;-73
2022/03/09 03:43:34;;;;;;;9.80;8.73;;;;;;;-2.31;93.05;100113.25;5070739;28;20232;-74
2022/03/09 03:46:06;;;;;;;10.70;8.63;;;;;;;-2.38;93.08;100115.53;5060741;28;20228;-73
2022/03/09 03:48:35;;;;;;;13.20;8.87;;;;;;;-2.29;91.63;100111.34;5071581;28;20225;-73
2022/03/09 03:51:02;;;;;;;11.50;8.80;;;;;;;-2.37;92.21;100108.50;5081397;28;20236;-73
2022/03/09 03:53:29;;;;;;;10.33;8.53;;;;;;;-2.30;92.63;100117.53;5081314;28;20260;-73
2022/03/09 03:55:57;;;;;;;11.83;9.17;;;;;;;-2.28;92.37;100115.59;5074149;28;20231;-72
2022/03/09 03:58:28;;;;;;;10.77;9.07;;;;;;;-2.19;90.53;100117.47;5071619;28;20517;-72
2022/03/09 04:00:58;;;;;;;11.80;8.77;;;;;;;-2.22;90.87;100123.81;5074156;28;20236;-72
2022/03/09 04:03:31;;;;;;;11.10;8.47;;;;;;;-2.33;91.32;100118.63;5063826;28;20225;-73
2022/03/09 04:06:00;;;;;;;10.13;8.10;;;;;;;-2.34;91.91;100122.22;5070528;28;20646;-72
2022/03/09 04:08:29;;;;;;;11.50;8.87;;;;;;;-2.33;91.54;100121.25;5054188;28;20244;-73
2022/03/09 04:10:59;;;;;;;11.43;8.83;;;;;;;-2.24;91.78;100119.69;5074116;28;20268;-73
2022/03/09 04:13:28;;;;;;;12.20;8.87;;;;;;;-2.35;91.29;100124.97;5073409;28;20236;-72
2022/03/09 04:15:54;;;;;;;11.57;8.77;;;;;;;-2.37;92.07;100124.25;5068559;28;20264;-72
2022/03/09 04:18:24;;;;;;;11.07;8.80;;;;;;;-2.41;92.02;100118.41;5071074;28;20236;-74
2022/03/09 04:20:53;;;;;;;10.53;8.70;;;;;;;-2.42;92.27;100119.38;5075323;28;20241;-73
2022/03/09 04:23:20;;;;;;;11.20;8.30;;;;;;;-2.42;93.16;100108.88;5078183;28;20234;-74
2022/03/09 04:25:50;;;;;;;10.70;7.97;;;;;;;-2.38;92.91;100109.47;5077169;28;20252;-75
2022/03/09 04:28:18;;;;;;;10.37;7.97;;;;;;;-2.48;93.80;100114.63;5081122;28;20223;-73
2022/03/09 04:30:46;;;;;;;11.20;8.47;;;;;;;-2.40;93.33;100108.75;5082485;28;20292;-74
2022/03/09 04:33:15;;;;;;;9.87;8.23;;;;;;;-2.46;93.79;100110.09;5081777;28;20193;-74
2022/03/09 04:35:44;;;;;;;12.27;8.50;;;;;;;-2.48;95.30;100111.19;5059733;28;20221;-73
2022/03/09 04:38:12;;;;;;;12.03;9.00;;;;;;;-2.52;95.83;100109.78;5065049;28;20240;-73
2022/03/09 04:40:41;;;;;;;11.07;8.47;;;;;;;-2.58;97.41;100110.25;5068975;28;20236;-73
2022/03/09 04:43:10;;;;;;;10.13;8.50;;;;;;;-2.59;96.32;100114.66;5082172;28;20648;-72
2022/03/09 04:45:38;;;;;;;10.23;8.40;;;;;;;-2.60;95.10;100113.00;5073086;28;20233;-73
2022/03/09 04:48:08;;;;;;;12.20;8.80;;;;;;;-2.65;95.29;100112.53;5078794;28;20220;-74
2022/03/09 04:50:45;;;;;;;10.70;8.23;;;;;;;-2.67;96.55;100114.47;5072328;28;20229;-72
2022/03/09 04:53:18;;;;;;;11.73;8.80;;;;;;;-2.74;97.67;100115.91;5075366;28;20235;-73
2022/03/09 04:55:46;;;;;;;12.27;8.90;;;;;;;-2.78;96.57;100119.72;5052629;28;20306;-72
2022/03/09 04:58:13;;;;;;;12.10;8.63;;;;;;;-2.76;97.06;100115.19;5080190;28;20281;-73
2022/03/09 05:00:41;;;;;;;10.73;9.00;;;;;;;-2.88;97.85;100111.75;5038835;28;20233;-74
2022/03/09 05:03:11;;;;;;;10.47;8.63;;;;;;;-2.94;100.00;100120.09;5066946;28;20217;-74
2022/03/09 05:05:41;;;;;;;10.37;8.83;;;;;;;-3.01;99.57;100110.25;5085974;28;20252;-73
2022/03/09 05:08:10;;;;;;;11.13;9.13;;;;;;;-2.89;100.00;100117.16;5085067;28;20296;-73
2022/03/09 05:10:43;;;;;;;10.97;8.57;;;;;;;-2.93;100.00;100124.41;5087668;28;20208;-74
2022/03/09 05:13:25;;;;;;;11.17;8.30;;;;;;;-2.95;100.00;100115.00;5091972;28;20204;-73
2022/03/09 05:15:56;;;;;;;9.87;8.73;;;;;;;-2.97;100.00;100115.13;5049844;28;20209;-73
2022/03/09 05:18:23;;;;;;;12.47;9.13;;;;;;;-2.96;100.00;100119.41;5079177;28;20252;-73
2022/03/09 05:20:53;;;;;;;10.50;8.77;;;;;;;-2.86;100.00;100120.34;5084524;28;20232;-73
2022/03/09 05:23:20;;;;;;;12.07;9.03;;;;;;;-2.83;100.00;100119.25;5074501;28;20591;-72
2022/03/09 05:25:48;;;;;;;10.67;8.63;;;;;;;-2.82;100.00;100120.94;5072912;28;20240;-73
2022/03/09 05:28:16;;;;;;;10.23;8.23;;;;;;;-2.78;100.00;100119.72;5066502;28;20264;-73
2022/03/09 05:30:45;;;;;;;10.20;8.00;;;;;;;-2.78;100.00;100123.19;5070980;28;20523;-74
2022/03/09 05:33:14;;;;;;;10.63;8.80;;;;;;;-2.77;100.00;100124.03;5077480;28;20249;-75
2022/03/09 05:36:00;;;;;;;10.47;8.10;;;;;;;-2.73;100.00;100130.69;5077274;28;20228;-73
2022/03/09 05:38:31;;;;;;;11.23;8.60;;;;;;;-2.65;98.33;100141.38;5055577;28;20583;-73
2022/03/09 05:40:59;;;;;;;9.40;8.40;;;;;;;-2.62;97.52;100135.91;5081363;28;20224;-72
2022/03/09 05:43:40;;;;;;;11.07;8.10;;;;;;;-2.66;98.39;100148.41;5071686;28;20244;-73
2022/03/09 05:46:09;;;;;;;11.63;8.80;;;;;;;-2.60;98.35;100156.75;5070287;28;20572;-72
2022/03/09 05:48:38;;;;;;;11.10;8.50;;;;;;;-2.60;96.53;100154.13;5066804;28;20303;-73
2022/03/09 05:51:10;;;;;;;10.87;8.77;;;;;;;-2.57;98.38;100153.91;5081990;28;20262;-73
2022/03/09 05:53:39;;;;;;;13.03;8.87;;;;;;;-2.50;98.01;100150.66;5073574;28;20249;-73
2022/03/09 05:56:07;;;;;;;11.87;9.77;;;;;;;-2.40;97.05;100161.25;5073919;28;20229;-72
2022/03/09 05:58:37;;;;;;;13.97;11.00;;;;;;;-2.36;97.37;100166.13;5070492;28;20275;-73
2022/03/09 06:01:06;;;;;;;14.37;10.97;;;;;;;-2.27;97.35;100164.53;5080603;28;20239;-73
2022/03/09 06:03:33;;;;;;;13.20;9.37;;;;;;;-2.14;96.70;100164.34;5075877;28;20362;-73
2022/03/09 06:06:01;;;;;;;13.33;9.93;;;;;;;-2.06;95.97;100165.41;5070825;28;20253;-73
2022/03/09 06:08:36;;;;;;;12.33;9.67;;;;;;;-1.95;95.13;100167.13;5062253;28;20577;-73
2022/03/09 06:11:06;;;;;;;10.77;8.87;;;;;;;-1.88;94.04;100163.06;5074005;28;20229;-73
2022/03/09 06:13:34;;;;;;;10.47;9.17;;;;;;;-1.80;94.75;100164.06;5069082;28;20232;-73
2022/03/09 06:16:02;;;;;;;12.53;8.83;;;;;;;-1.65;94.83;100176.88;5070920;28;20254;-73
2022/03/09 06:18:37;;;;;;;10.83;8.70;;;;;;;-1.53;93.36;100173.22;5074434;28;20221;-73
2022/03/09 06:21:06;;;;;;;12.80;9.63;;;;;;;-1.41;91.34;100175.66;5066105;28;20213;-72
2022/03/09 06:23:33;;;;;;;12.03;8.73;;;;;;;-1.26;90.19;100177.97;5065156;28;20217;-73
2022/03/09 06:26:00;;;;;;;12.37;9.03;;;;;;;-1.19;89.09;100171.19;5044298;28;20276;-73
2022/03/09 06:28:28;;;;;;;13.23;9.67;;;;;;;-1.02;89.33;100178.44;5043967;28;20225;-73
2022/03/09 06:30:55;;;;;;;13.57;9.30;;;;;;;-0.73;87.40;100187.28;5067874;28;20271;-74
2022/03/09 06:33:24;;;;;;;11.67;8.73;;;;;;;-0.64;86.73;100188.28;5044803;28;20328;-73
2022/03/09 06:35:51;;;;;;;11.40;8.70;;;;;;;-0.47;84.10;100180.56;5074785;28;20255;-73
2022/03/09 06:38:22;;;;;;;10.97;8.60;;;;;;;-0.34;83.33;100197.91;5054656;23;20230;-72
2022/03/09 06:40:51;;;;;;;12.00;8.83;;;;;;;-0.18;81.71;100193.75;5040946;28;20241;-73
2022/03/09 06:43:21;;;;;;;14.63;8.80;;;;;;;0.06;75.97;100192.53;5047573;28;20233;-73
2022/03/09 06:45:54;;;;;;;11.73;8.77;;;;;;;0.08;74.71;100188.78;5029039;28;20529;-73
2022/03/09 06:48:23;;;;;;;11.90;8.97;;;;;;;0.22;74.03;100198.91;5050379;28;20234;-73
2022/03/09 06:50:49;;;;;;;10.27;8.80;;;;;;;0.35;72.81;100203.88;5041738;28;20258;-73
2022/03/09 06:53:16;;;;;;;12.97;8.97;;;;;;;0.53;71.80;100204.84;5031485;28;20530;-73
2022/03/09 06:55:44;;;;;;;15.73;8.97;;;;;;;0.75;70.49;100207.13;5051569;28;20225;-74
2022/03/09 06:58:12;;;;;;;11.10;8.20;;;;;;;0.81;69.97;100200.47;5045089;28;20328;-73
2022/03/09 07:00:38;;;;;;;10.53;8.27;;;;;;;0.97;69.87;100200.69;5026920;28;20676;-73
2022/03/09 07:03:06;;;;;;;11.30;9.30;;;;;;;1.24;68.11;100211.28;5043842;28;20245;-73
2022/03/09 07:05:36;;;;;;;12.17;8.77;;;;;;;1.40;68.35;100210.63;5043736;28;20321;-74
2022/03/09 07:08:03;;;;;;;11.97;8.50;;;;;;;1.74;66.33;100219.63;5040311;28;20233;-73
2022/03/09 07:10:36;;;;;;;13.83;8.33;;;;;;;2.00;63.72;100205.69;5040526;28;20250;-73
2022/03/09 07:13:03;;;;;;;8.57;7.30;;;;;;;2.21;62.62;100212.31;5046639;28;20312;-73
2022/03/09 07:15:36;;;;;;;9.30;7.83;;;;;;;2.51;59.76;100210.25;5055752;28;20316;-73
2022/03/09 07:18:03;;;;;;;8.47;7.43;;;;;;;2.69;59.58;100207.56;5033376;28;20525;-73
2022/03/09 07:20:30;;;;;;;9.10;7.13;;;;;;;2.97;57.58;100211.72;5040590;28;20304;-73
2022/03/09 07:23:00;;;;;;;9.20;6.93;;;;;;;3.08;56.29;100216.72;5042165;28;20687;-73
2022/03/09 07:25:29;;;;;;;10.07;7.10;;;;;;;3.29;55.80;100219.84;5060788;28;20225;-73
2022/03/09 07:28:11;;;;;;;8.53;7.10;;;;;;;3.33;55.67;100217.69;5062632;28;20247;-73
2022/03/09 07:30:38;;;;;;;9.07;6.97;;;;;;;3.54;54.65;100223.41;5061772;28;20232;-73
2022/03/09 07:33:12;;;;;;;8.20;6.50;;;;;;;3.68;53.12;100222.81;5062771;28;20229;-73
2022/03/09 07:35:39;;;;;;;8.40;7.10;;;;;;;3.81;51.80;100220.53;5043302;28;20237;-73
2022/03/09 07:38:07;;;;;;;8.77;7.10;;;;;;;3.95;51.46;100219.88;5067205;28;20232;-73
2022/03/09 07:40:37;;;;;;;12.60;7.63;;;;;;;4.08;51.34;100219.41;5065209;28;20274;-74
2022/03/09 07:43:08;;;;;;;9.47;6.87;;;;;;;4.23;50.95;100224.91;5073094;23;20229;-73
2022/03/09 07:46:04;;;;;;;9.60;7.57;;;;;;;4.35;49.57;100220.91;5045081;22;20209;-73
2022/03/09 07:49:08;;;;;;;8.90;7.33;;;;;;;4.53;48.60;100226.06;5072773;23;20228;-73
2022/03/09 07:51:39;;;;;;;9.60;7.20;;;;;;;4.57;48.58;100222.94;5180450;22;20272;-72
2022/03/09 07:54:10;;;;;;;8.83;7.33;;;;;;;4.51;48.39;100228.91;5100823;22;20209;-76
2022/03/09 07:57:01;;;;;;;9.00;7.73;;;;;;;4.67;47.88;100228.03;5169217;22;20229;-75
2022/03/09 07:59:56;;;;;;;10.03;7.80;;;;;;;4.63;47.78;100224.06;5071260;22;20210;-73
2022/03/09 08:02:57;;;;;;;11.33;7.63;;;;;;;4.74;47.49;100226.38;5079750;22;20206;-73
2022/03/09 08:09:31;;;;;;;9.53;7.27;;;;;;;4.92;47.55;100220.88;5037425;22;20277;-81
2022/03/09 08:12:34;;;;;;;11.47;8.03;;;;;;;5.16;46.77;100205.72;5076706;22;20239;-81
2022/03/09 08:15:30;;;;;;;10.80;7.37;;;;;;;5.33;45.77;100215.28;5098120;22;20247;-76
2022/03/09 08:18:05;;;;;;;9.17;7.23;;;;;;;5.51;46.33;100216.88;5167564;22;20240;-73
2022/03/09 08:20:43;;;;;;;11.00;8.03;;;;;;;5.61;45.15;100220.97;5084387;28;20209;-74
2022/03/09 08:23:12;;;;;;;9.97;7.73;;;;;;;5.83;44.44;100224.72;5078157;28;20185;-74
2022/03/09 08:25:44;;;;;;;9.90;7.80;;;;;;;5.79;43.76;100220.72;5077258;28;20263;-75
2022/03/09 08:28:27;;;;;;;9.97;7.63;;;;;;;5.81;44.29;100229.38;5104395;23;20225;-76
2022/03/09 08:31:13;;;;;;;9.20;7.40;;;;;;;5.82;43.86;100228.38;5102988;22;20224;-73
2022/03/09 08:34:04;;;;;;;10.83;7.57;;;;;;;5.81;44.04;100232.03;5097559;28;20260;-74
2022/03/09 08:36:52;;;;;;;8.97;7.27;;;;;;;5.90;43.07;100216.88;5077473;28;20301;-73
2022/03/09 08:39:32;;;;;;;10.90;7.80;;;;;;;5.82;42.88;100222.22;5104500;22;20729;31
2022/03/09 08:42:45;;;;;;;10.33;6.80;;;;;;;5.84;42.42;100229.00;4997060;28;20238;-74
2022/03/09 08:45:53;;;;;;;9.27;7.30;;;;;;;6.11;42.70;100220.56;5034076;23;20229;-74
2022/03/09 08:48:43;;;;;;;10.07;7.50;;;;;;;6.22;42.95;100219.34;5065024;23;20288;-74
2022/03/09 08:51:45;;;;;;;8.70;7.03;;;;;;;6.50;41.90;100211.63;5062738;22;20277;-74
2022/03/09 08:54:23;;;;;;;9.40;7.83;;;;;;;6.62;41.11;100228.84;5035372;28;20283;-72
2022/03/09 08:56:58;;;;;;;7.57;6.27;;;;;;;6.48;39.81;100218.97;5066090;28;20213;-73
2022/03/09 08:59:38;;;;;;;8.53;6.70;;;;;;;6.41;40.89;100213.53;5064426;22;20240;-73
2022/03/09 09:02:28;;;;;;;7.53;6.70;;;;;;;6.39;40.08;100218.19;5056351;28;20252;-73
2022/03/09 09:05:15;;;;;;;8.00;6.60;;;;;;;6.26;40.40;100209.97;5061035;22;20248;-73
2022/03/09 09:07:59;;;;;;;7.43;6.70;;;;;;;6.26;41.94;100209.16;5097326;22;20252;-72
2022/03/09 09:11:04;;;;;;;8.90;7.03;;;;;;;6.41;41.86;100218.03;5192307;22;20229;-71
2022/03/09 09:14:13;;;;;;;8.33;7.30;;;;;;;6.53;41.56;100205.97;5066986;22;20332;-72
2022/03/09 09:17:19;;;;;;;10.30;7.20;;;;;;;6.52;40.38;100194.50;5091204;22;20255;-73
2022/03/09 09:20:30;;;;;;;9.47;7.43;;;;;;;6.46;41.13;100189.88;5177652;22;20237;-74
2022/03/09 09:23:16;;;;;;;9.83;6.83;;;;;;;6.57;41.55;100193.94;5081822;22;20235;-80
2022/03/09 09:25:54;;;;;;;9.10;6.53;;;;;;;6.72;39.14;100188.66;5103337;22;20188;-74
2022/03/09 09:28:23;;;;;;;10.00;6.63;;;;;;;6.69;39.51;100189.81;5109994;23;20220;-75
2022/03/09 09:31:10;;;;;;;8.87;6.30;;;;;;;6.67;39.22;100189.19;5104023;22;20220;-74
2022/03/09 09:33:37;;;;;;;9.03;6.40;;;;;;;6.70;39.79;100186.16;5086621;22;20241;-75
2022/03/09 09:36:05;;;;;;;9.13;6.63;;;;;;;6.82;39.37;100179.38;5080129;23;20284;-77
2022/03/09 09:39:17;;;;;;;8.13;5.97;;;;;;;7.05;38.62;100173.97;5096907;23;20251;-78
2022/03/09 09:42:19;;;;;;;8.43;6.33;;;;;;;7.28;38.02;100172.03;5104508;23;20232;-76
2022/03/09 09:45:41;;;;;;;5.90;5.30;;;;;;;7.51;37.07;100164.75;5087846;28;20194;-77
2022/03/09 09:48:20;;;;;;;6.47;5.67;;;;;;;7.61;36.62;100164.44;5097317;22;20320;-78
2022/03/09 09:51:10;;;;;;;6.97;5.60;;;;;;;7.85;37.14;100164.09;5086701;28;20236;-79
2022/03/09 09:53:48;;;;;;;6.60;5.40;;;;;;;7.72;36.41;100160.47;5091422;28;20224;-75
2022/03/09 09:57:01;;;;;;;7.90;5.73;;;;;;;7.98;36.05;100158.06;5107869;28;20235;-75
2022/03/09 09:59:51;;;;;;;6.20;4.67;;;;;;;8.15;35.21;100164.84;5098037;28;20221;-82
2022/03/09 10:02:41;;;;;;;5.20;4.70;;;;;;;8.36;34.93;100159.50;5085046;28;20234;-74
2022/03/09 10:05:32;;;;;;;5.63;4.87;;;;;;;8.55;34.42;100150.00;5097692;28;20219;-81
2022/03/09 10:08:06;;;;;;;6.77;5.07;;;;;;;8.58;33.81;100148.81;5096265;28;20215;-80
2022/03/09 10:10:40;;;;;;;5.57;4.70;;;;;;;8.84;33.58;100148.97;5095140;28;20228;-79
2022/03/09 10:13:39;;;;;;;6.30;4.80;;;;;;;8.88;33.78;100147.56;5066187;23;20277;-78
2022/03/09 10:16:33;;;;;;;5.97;4.67;;;;;;;9.23;33.28;100143.03;5077457;23;20213;-74
2022/03/09 10:19:02;;;;;;;6.70;4.97;;;;;;;9.44;33.32;100142.91;5077739;22;20252;-74
2022/03/09 10:21:51;;;;;;;7.40;4.60;;;;;;;9.47;34.28;100147.06;5070870;23;20238;-75
2022/03/09 10:24:51;;;;;;;7.33;4.93;;;;;;;9.39;34.94;100136.50;5084348;28;20231;-75
2022/03/09 10:28:07;;;;;;;9.83;8.27;;;;;;;9.52;35.42;100136.56;5173792;22;20216;-73
2022/03/09 10:31:38;;;;;;;6.63;5.40;;;;;;;9.53;34.67;100132.88;5102875;22;20232;-74
2022/03/09 10:34:37;;;;;;;5.60;5.00;;;;;;;9.72;34.95;100130.25;5101325;22;20293;-73
2022/03/09 10:37:07;;;;;;;6.23;4.90;;;;;;;9.82;34.61;100126.38;5084931;28;20198;-73
2022/03/09 10:40:33;;;;;;;5.73;4.93;;;;;;;9.96;34.45;100136.06;5046532;22;20228;-74
2022/03/09 10:43:18;;;;;;;5.73;4.70;;;;;;;10.07;35.63;100139.00;5058180;23;20293;-74
2022/03/09 10:46:20;;;;;;;6.67;4.90;;;;;;;9.55;36.52;100131.66;5066758;28;20221;-76
2022/03/09 10:49:01;;;;;;;6.77;5.57;;;;;;;9.73;37.67;100126.56;5054944;28;20256;-77
2022/03/09 10:51:51;;;;;;;5.70;5.10;;;;;;;9.86;37.36;100120.41;5092799;22;20232;-80
2022/03/09 10:54:25;;;;;;;5.20;4.70;;;;;;;9.75;37.59;100118.34;5046620;28;20236;-73
2022/03/09 10:57:16;;;;;;;7.17;4.93;;;;;;;9.63;37.56;100123.44;5049103;28;20221;-73
2022/03/09 11:00:05;;;;;;;5.37;4.87;;;;;;;9.60;37.39;100117.69;5049362;28;20560;-77
2022/03/09 11:03:19;;;;;;;6.57;4.60;;;;;;;9.78;38.32;100125.94;5049878;28;20222;-74
2022/03/09 11:06:15;;;;;;;5.53;5.03;;;;;;;9.84;38.78;100135.84;5074395;22;20238;-73
2022/03/09 11:09:19;;;;;;;5.53;4.93;;;;;;;9.42;39.05;100136.13;5102644;22;20204;-73
2022/03/09 11:12:14;;;;;;;5.67;4.50;;;;;;;9.69;39.04;100129.84;5083276;22;20221;-76
2022/03/09 11:15:07;;;;;;;5.87;4.30;;;;;;;9.19;40.86;100118.53;5063058;23;20231;-74
2022/03/09 11:18:04;;;;;;;5.40;4.53;;;;;;;9.33;41.10;100129.31;5093608;28;20247;-78
2022/03/09 11:21:08;;;;;;;7.47;4.90;;;;;;;8.97;42.58;100124.16;5162670;22;20213;-73
2022/03/09 11:23:46;;;;;;;8.97;5.40;;;;;;;9.26;41.48;100127.41;5087633;22;20200;-73
2022/03/09 11:27:12;;;;;;;5.63;5.00;;;;;;;9.23;41.68;100122.47;5104564;22;20284;-71
2022/03/09 11:30:25;;;;;;;4.83;4.33;;;;;;;10.12;39.62;100112.41;5056970;23;20243;-77
2022/03/09 11:33:56;;;;;;;5.43;4.90;;;;;;;10.38;39.06;100116.16;5095529;28;20207;-77
2022/03/09 11:36:35;;;;;;;7.10;5.10;;;;;;;10.21;39.81;100117.59;5084682;28;20182;-78
2022/03/09 11:39:31;;;;;;;6.03;4.90;;;;;;;10.05;40.19;100119.63;5084259;28;20574;-86
2022/03/09 11:42:19;;;;;;;5.40;4.57;;;;;;;10.04;39.17;100109.94;5085356;28;20432;-81
2022/03/09 11:44:59;;;;;;;7.47;4.87;;;;;;;10.25;39.19;100103.59;5065757;28;20216;-83
2022/03/09 11:47:27;;;;;;;6.53;4.90;;;;;;;10.10;39.31;100095.72;5063356;28;20240;-85
2022/03/09 11:50:06;;;;;;;6.50;4.70;;;;;;;10.15;39.85;100087.94;5066840;28;20215;-83
2022/03/09 11:52:53;;;;;;;5.33;4.83;;;;;;;10.03;39.42;100088.75;5064452;22;20325;-84
2022/03/09 11:55:21;;;;;;;5.37;3.97;;;;;;;9.46;40.59;100084.72;5030870;28;20235;-84
2022/03/09 11:57:48;;;;;;;5.30;4.30;;;;;;;9.63;40.62;100090.50;5045211;28;20583;-82
2022/03/09 12:00:20;;;;;;;4.83;3.90;;;;;;;9.46;40.85;100089.22;5046264;28;20282;-83
2022/03/09 12:02:56;;;;;;;8.37;4.17;;;;;;;9.51;40.72;100078.75;5059220;22;20181;-81
2022/03/09 12:05:42;;;;;;;6.30;4.70;;;;;;;9.26;40.79;100087.31;5086558;28;20224;-79
2022/03/09 12:08:14;;;;;;;8.93;6.63;;;;;;;9.32;41.77;100085.69;5083120;28;20224;-84
2022/03/09 12:10:56;;;;;;;16.90;12.33;;;;;;;9.33;40.84;100084.69;5086059;28;20236;-85
2022/03/09 12:13:31;;;;;;;5.67;4.83;;;;;;;9.45;41.13;100077.72;5087626;28;20236;-80